Time;durP1;ratioP1;P1;durP2;ratioP2;P2;SDS_P1;SDS_P2;PMS_P1;PMS_P2;Temp;Humidity;BMP_temperature;BMP_pressure;BME280_temperature;BME280_humidity;BME280_pressure;Samples;Min_cycle;Max_cycle;Signal;HPM_P1;HPM_P2
2022/07/30 00:00:08;;;;;;;8.05;6.20;;;17.10;95.50;;;;;;5015272;28;20048;-66
2022/07/30 00:02:34;;;;;;;9.50;5.65;;;17.10;95.80;;;;;;5033638;28;20051;-67
2022/07/30 00:05:00;;;;;;;8.27;5.53;;;17.10;95.90;;;;;;5031955;28;20052;-66
2022/07/30 00:07:26;;;;;;;8.10;5.28;;;17.10;95.80;;;;;;5051359;28;20490;-66
2022/07/30 00:09:52;;;;;;;6.00;4.55;;;17.00;95.70;;;;;;5048648;28;20048;-66
2022/07/30 00:12:18;;;;;;;9.90;6.60;;;17.00;95.60;;;;;;5034947;28;20115;-66
2022/07/30 00:14:43;;;;;;;6.15;5.20;;;17.00;95.80;;;;;;5035019;28;20052;-67
2022/07/30 00:17:09;;;;;;;7.88;5.82;;;17.00;95.70;;;;;;5044701;28;20501;-66
2022/07/30 00:19:35;;;;;;;4.72;3.90;;;16.90;95.80;;;;;;5014797;28;20127;-67
2022/07/30 00:22:01;;;;;;;4.80;3.13;;;16.90;95.90;;;;;;5044667;28;20409;-67
2022/07/30 00:24:27;;;;;;;3.90;3.00;;;16.80;95.70;;;;;;5050874;28;20032;-67
2022/07/30 00:26:52;;;;;;;4.03;3.13;;;16.80;95.60;;;;;;5045619;28;20072;-66
2022/07/30 00:29:18;;;;;;;4.85;3.50;;;16.70;95.50;;;;;;5045793;28;20081;-66
2022/07/30 00:31:44;;;;;;;4.20;3.35;;;16.70;95.50;;;;;;5034779;28;20048;-66
2022/07/30 00:34:11;;;;;;;6.43;3.35;;;16.70;95.50;;;;;;5047772;28;20072;-67
2022/07/30 00:36:38;;;;;;;5.63;3.60;;;16.70;95.60;;;;;;5038842;28;20140;-66
2022/07/30 00:39:04;;;;;;;4.75;3.50;;;16.60;95.70;;;;;;5048361;28;20044;-67
2022/07/30 00:41:30;;;;;;;5.45;3.78;;;16.50;95.70;;;;;;5028288;28;20040;-66
2022/07/30 00:43:56;;;;;;;4.97;4.43;;;16.50;95.70;;;;;;5033483;28;20058;-66
2022/07/30 00:46:22;;;;;;;5.82;4.22;;;16.50;95.90;;;;;;5034977;28;20147;-66
2022/07/30 00:48:47;;;;;;;3.75;3.45;;;16.50;96.00;;;;;;5028046;28;20044;-67
2022/07/30 00:51:13;;;;;;;4.72;4.03;;;16.40;96.00;;;;;;5035076;28;20048;-66
2022/07/30 00:53:39;;;;;;;4.88;3.97;;;16.40;96.10;;;;;;5015929;28;20052;-67
2022/07/30 00:56:05;;;;;;;6.05;4.35;;;16.30;96.10;;;;;;5045186;28;20047;-67
2022/07/30 00:58:31;;;;;;;5.45;3.80;;;16.30;96.20;;;;;;5025470;28;20481;-66
2022/07/30 01:00:57;;;;;;;4.72;4.20;;;16.30;96.10;;;;;;5041975;28;20096;-67
2022/07/30 01:03:23;;;;;;;6.95;3.78;;;16.20;96.20;;;;;;5035048;28;20383;-67
2022/07/30 01:05:49;;;;;;;4.22;3.00;;;16.20;96.20;;;;;;5020074;28;20087;-67
2022/07/30 01:08:15;;;;;;;2.92;2.63;;;16.10;96.20;;;;;;5039480;28;20056;-65
2022/07/30 01:10:41;;;;;;;3.97;3.25;;;16.10;96.30;;;;;;5032431;28;20116;-66
2022/07/30 01:13:07;;;;;;;3.17;2.80;;;16.00;96.50;;;;;;5051191;28;20151;-66
2022/07/30 01:15:33;;;;;;;3.95;3.55;;;15.90;96.70;;;;;;5034087;28;20044;-66
2022/07/30 01:18:04;;;;;;;3.22;2.92;;;15.90;97.00;;;;;;5038748;28;20044;-66
2022/07/30 01:20:35;;;;;;;3.63;3.17;;;15.90;97.20;;;;;;5029193;28;20076;-66
2022/07/30 01:23:22;;;;;;;3.40;2.70;;;15.80;97.30;;;;;;5051335;28;20320;-67
2022/07/30 01:25:53;;;;;;;2.58;2.38;;;15.80;97.30;;;;;;5034414;28;20044;-68
2022/07/30 01:28:24;;;;;;;3.92;2.65;;;15.80;97.40;;;;;;5048900;28;20513;-67
2022/07/30 01:30:53;;;;;;;3.10;2.80;;;15.80;97.60;;;;;;5050163;28;20105;-66
2022/07/30 01:33:22;;;;;;;2.25;2.05;;;15.70;98.20;;;;;;5056059;28;20507;-66
2022/07/30 01:35:50;;;;;;;2.00;1.90;;;15.70;98.70;;;;;;5055516;28;20044;-66
2022/07/30 01:38:20;;;;;;;2.60;2.40;;;15.60;99.00;;;;;;5049191;28;20044;-67
2022/07/30 01:40:48;;;;;;;4.22;2.83;;;15.60;99.30;;;;;;5022336;28;20047;-66
2022/07/30 01:43:15;;;;;;;3.00;2.80;;;15.60;99.50;;;;;;5031942;28;20051;-67
2022/07/30 01:45:42;;;;;;;4.57;3.80;;;15.50;99.80;;;;;;5046615;28;20488;-67
2022/07/30 01:48:10;;;;;;;3.45;3.15;;;15.40;99.90;;;;;;5053875;28;20066;-66
2022/07/30 01:50:37;;;;;;;8.05;4.50;;;15.40;99.90;;;;;;5047644;28;20494;-67
2022/07/30 01:53:04;;;;;;;6.07;4.50;;;15.30;99.90;;;;;;5045362;28;20052;-66
2022/07/30 01:55:38;;;;;;;5.70;4.22;;;15.30;99.90;;;;;;5035377;28;20052;-66
2022/07/30 01:58:06;;;;;;;5.35;4.38;;;15.30;99.90;;;;;;5048772;28;20047;-65
2022/07/30 02:00:36;;;;;;;5.82;5.22;;;15.20;99.90;;;;;;5046328;28;20052;-67
2022/07/30 02:03:04;;;;;;;5.88;4.70;;;15.20;99.90;;;;;;5026273;28;20048;-67
2022/07/30 02:05:33;;;;;;;8.18;6.90;;;15.20;99.90;;;;;;5054142;28;20136;-67
2022/07/30 02:08:06;;;;;;;5.68;4.60;;;15.20;99.90;;;;;;5036413;28;20140;-67
2022/07/30 02:10:45;;;;;;;7.32;5.93;;;15.20;99.90;;;;;;5030951;28;20097;-67
2022/07/30 02:13:13;;;;;;;9.23;6.13;;;15.20;99.90;;;;;;5034899;28;20052;-66
2022/07/30 02:15:54;;;;;;;9.05;6.00;;;15.10;99.90;;;;;;5037321;28;20588;-67
2022/07/30 02:18:28;;;;;;;7.60;6.80;;;15.10;99.90;;;;;;5047518;28;20861;-66
2022/07/30 02:21:03;;;;;;;12.75;7.15;;;15.10;99.90;;;;;;5043296;28;20518;-66
2022/07/30 02:23:34;;;;;;;9.25;5.93;;;15.10;99.90;;;;;;5045277;28;20083;-67
2022/07/30 02:26:02;;;;;;;8.50;6.10;;;15.00;99.90;;;;;;5030281;28;20147;-66
2022/07/30 02:28:30;;;;;;;9.30;7.43;;;15.00;99.90;;;;;;5044962;28;20055;-67
2022/07/30 02:31:00;;;;;;;9.77;7.18;;;15.00;99.90;;;;;;5056098;28;20087;-67
2022/07/30 02:33:29;;;;;;;8.05;6.30;;;15.00;99.90;;;;;;5058845;28;20426;-66
2022/07/30 02:35:58;;;;;;;6.15;5.10;;;15.00;99.90;;;;;;5046378;28;20071;-66
2022/07/30 02:38:26;;;;;;;4.50;4.10;;;15.00;99.90;;;;;;5043653;28;21292;-67
2022/07/30 02:40:56;;;;;;;5.70;4.22;;;14.90;99.90;;;;;;5037923;28;20123;-66
2022/07/30 02:43:24;;;;;;;7.65;3.55;;;14.90;99.90;;;;;;5020659;28;20040;-67
2022/07/30 02:45:51;;;;;;;5.53;4.32;;;14.80;99.90;;;;;;5031749;28;20132;-67
2022/07/30 02:48:22;;;;;;;5.45;4.70;;;14.80;99.90;;;;;;5047423;28;20177;-67
2022/07/30 02:50:51;;;;;;;11.18;7.38;;;14.80;99.90;;;;;;5046478;28;20052;-66
2022/07/30 02:53:19;;;;;;;7.85;7.05;;;14.80;99.90;;;;;;5044291;28;20479;-67
2022/07/30 02:55:46;;;;;;;7.35;6.55;;;14.70;99.90;;;;;;5030194;28;20047;-66
2022/07/30 02:58:19;;;;;;;7.80;5.90;;;14.70;99.90;;;;;;5032742;28;20517;-67
2022/07/30 03:00:47;;;;;;;5.65;4.72;;;14.60;99.90;;;;;;5045642;28;20577;-67
2022/07/30 03:03:15;;;;;;;4.93;4.30;;;14.60;99.90;;;;;;5028017;28;20044;-67
2022/07/30 03:05:41;;;;;;;6.43;5.82;;;14.50;99.90;;;;;;5047266;28;20060;-67
2022/07/30 03:08:08;;;;;;;5.88;5.35;;;14.50;99.90;;;;;;5061009;28;20086;-66
2022/07/30 03:10:36;;;;;;;6.75;6.00;;;14.40;99.90;;;;;;5046757;28;20394;-66
2022/07/30 03:13:05;;;;;;;6.35;5.75;;;14.40;99.90;;;;;;5045999;28;20048;-67
2022/07/30 03:15:34;;;;;;;6.05;5.45;;;14.40;99.90;;;;;;5037041;28;20135;-66
2022/07/30 03:18:02;;;;;;;9.85;6.30;;;14.40;99.90;;;;;;5043887;28;20186;-66
2022/07/30 03:20:30;;;;;;;7.20;6.50;;;14.40;99.90;;;;;;5044773;28;20037;-66
2022/07/30 03:22:58;;;;;;;8.88;6.03;;;14.40;99.90;;;;;;5029962;28;20040;-67
2022/07/30 03:25:27;;;;;;;10.63;7.88;;;14.40;99.90;;;;;;5023253;28;20048;-67
2022/07/30 03:27:56;;;;;;;9.63;7.75;;;14.30;99.90;;;;;;5035229;28;20078;-66
2022/07/30 03:30:24;;;;;;;8.60;7.47;;;14.30;99.90;;;;;;5036422;28;20105;-66
2022/07/30 03:32:52;;;;;;;8.07;6.80;;;14.30;99.90;;;;;;5022017;28;20611;-67
2022/07/30 03:35:20;;;;;;;7.88;6.70;;;14.30;99.90;;;;;;5031216;28;20399;-67
2022/07/30 03:37:47;;;;;;;7.97;6.90;;;14.30;99.90;;;;;;5045786;28;20048;-66
2022/07/30 03:40:13;;;;;;;8.27;6.90;;;14.20;99.90;;;;;;5032279;28;20040;-67
2022/07/30 03:42:40;;;;;;;8.38;7.55;;;14.20;99.90;;;;;;5045748;28;20462;-67
2022/07/30 03:45:08;;;;;;;8.77;7.18;;;14.20;99.90;;;;;;5011589;28;20076;-66
2022/07/30 03:47:38;;;;;;;9.73;7.90;;;14.20;99.90;;;;;;5052679;28;20048;-66
2022/07/30 03:50:05;;;;;;;11.38;8.15;;;14.20;99.90;;;;;;5042169;28;20046;-67
2022/07/30 03:52:37;;;;;;;14.40;9.70;;;14.20;99.90;;;;;;5048199;28;20043;-67
2022/07/30 03:55:08;;;;;;;10.57;7.88;;;14.20;99.90;;;;;;5044294;28;20178;-68
2022/07/30 03:57:34;;;;;;;11.02;9.15;;;14.20;99.90;;;;;;5039892;28;20055;-67
2022/07/30 04:00:02;;;;;;;13.20;9.90;;;14.20;99.90;;;;;;5045491;28;20048;-66
2022/07/30 04:02:28;;;;;;;10.80;8.35;;;14.20;99.90;;;;;;5034225;28;20078;-67
2022/07/30 04:04:54;;;;;;;11.85;8.50;;;14.20;99.90;;;;;;5042725;28;20040;-66
2022/07/30 04:07:20;;;;;;;11.05;9.38;;;14.20;99.90;;;;;;5046860;28;20131;-67
2022/07/30 04:09:46;;;;;;;11.27;9.50;;;14.20;99.90;;;;;;5042543;28;20051;-67
2022/07/30 04:12:12;;;;;;;12.02;9.20;;;14.20;99.90;;;;;;5031362;28;21117;-67
2022/07/30 04:14:41;;;;;;;11.75;8.85;;;14.20;99.90;;;;;;5029786;28;20586;-67
2022/07/30 04:17:18;;;;;;;10.68;7.80;;;14.20;99.90;;;;;;5042333;28;20052;-67
2022/07/30 04:19:52;;;;;;;10.90;7.68;;;14.30;99.90;;;;;;5049742;28;20051;-67
2022/07/30 04:22:32;;;;;;;9.18;8.18;;;14.30;99.90;;;;;;5017074;28;20175;-67
2022/07/30 04:25:00;;;;;;;12.35;9.45;;;14.30;99.90;;;;;;5030496;28;20040;-67
2022/07/30 04:27:28;;;;;;;8.68;7.05;;;14.20;99.90;;;;;;5046230;28;20048;-67
2022/07/30 04:29:54;;;;;;;8.55;7.00;;;14.20;99.90;;;;;;5036130;28;20501;-67
2022/07/30 04:32:20;;;;;;;14.43;9.50;;;14.20;99.90;;;;;;5040438;28;20052;-67
2022/07/30 04:34:52;;;;;;;16.95;10.95;;;14.20;99.90;;;;;;5024614;28;20051;-67
2022/07/30 04:37:21;;;;;;;13.15;11.70;;;14.20;99.90;;;;;;5045588;28;20518;-66
2022/07/30 04:39:53;;;;;;;13.77;10.82;;;14.30;99.90;;;;;;5046373;28;20123;-67
2022/07/30 04:42:21;;;;;;;14.32;10.95;;;14.20;99.90;;;;;;5032956;28;20060;-65
2022/07/30 04:44:47;;;;;;;13.70;11.02;;;14.30;99.90;;;;;;5040096;28;20040;-66
2022/07/30 04:47:13;;;;;;;16.05;10.80;;;14.30;99.90;;;;;;5021093;28;20545;-67
2022/07/30 04:49:40;;;;;;;11.15;9.10;;;14.30;99.90;;;;;;5039224;28;20092;-66
2022/07/30 04:52:08;;;;;;;12.45;9.50;;;14.40;99.90;;;;;;5049765;28;20047;-66
2022/07/30 04:55:02;;;;;;;11.25;9.73;;;14.40;99.90;;;;;;5046495;28;20175;-66
2022/07/30 04:57:30;;;;;;;13.85;11.60;;;14.50;99.90;;;;;;5052400;28;20577;-65
2022/07/30 04:59:56;;;;;;;17.27;12.60;;;14.50;99.90;;;;;;5042424;28;20040;-66
2022/07/30 05:02:27;;;;;;;15.52;12.65;;;14.50;99.90;;;;;;4986955;28;20055;-67
2022/07/30 05:04:53;;;;;;;17.70;12.40;;;14.60;99.90;;;;;;5048945;28;20043;-66
2022/07/30 05:07:20;;;;;;;17.60;13.45;;;14.60;99.90;;;;;;5049281;28;20506;-66
2022/07/30 05:09:47;;;;;;;14.32;12.07;;;14.60;99.90;;;;;;5052860;28;20483;-66
2022/07/30 05:12:13;;;;;;;14.38;12.25;;;14.70;99.90;;;;;;5048074;28;20040;-66
2022/07/30 05:14:39;;;;;;;14.20;11.20;;;14.70;99.90;;;;;;5003041;28;20490;-66
2022/07/30 05:17:05;;;;;;;15.95;13.25;;;14.70;99.90;;;;;;5029286;28;20097;-66
2022/07/30 05:19:31;;;;;;;19.45;12.63;;;14.70;99.90;;;;;;5047547;28;20045;-67
2022/07/30 05:21:56;;;;;;;14.98;13.00;;;14.70;99.90;;;;;;5048495;28;20446;-66
2022/07/30 05:24:22;;;;;;;16.75;13.00;;;14.80;99.90;;;;;;5031862;28;20067;-66
2022/07/30 05:26:48;;;;;;;16.00;12.65;;;14.80;99.90;;;;;;5047381;28;20044;-66
2022/07/30 05:29:14;;;;;;;17.10;13.18;;;14.90;99.90;;;;;;5029805;28;20697;-66
2022/07/30 05:31:39;;;;;;;17.67;13.43;;;14.90;99.90;;;;;;5032339;28;21209;-66
2022/07/30 05:34:06;;;;;;;16.67;13.15;;;15.00;99.90;;;;;;5032877;28;20501;-67
2022/07/30 05:36:32;;;;;;;15.45;13.80;;;15.00;99.90;;;;;;5029024;28;20130;-66
2022/07/30 05:38:59;;;;;;;16.58;14.52;;;15.10;99.90;;;;;;5022115;28;20040;-66
2022/07/30 05:41:26;;;;;;;19.73;15.20;;;15.10;99.90;;;;;;5030132;28;20040;-67
2022/07/30 05:43:52;;;;;;;20.73;14.82;;;15.10;99.90;;;;;;5040728;28;20048;-66
2022/07/30 05:46:18;;;;;;;20.13;15.65;;;15.20;99.90;;;;;;5043097;28;20130;-66
2022/07/30 05:48:44;;;;;;;23.65;16.92;;;15.20;99.90;;;;;;5037931;28;20059;-67
2022/07/30 05:51:10;;;;;;;20.45;16.08;;;15.30;99.90;;;;;;5046343;28;20174;-66
2022/07/30 05:53:36;;;;;;;23.92;17.73;;;15.40;99.90;;;;;;5034006;28;20582;-66
2022/07/30 05:56:01;;;;;;;19.92;17.05;;;15.50;99.90;;;;;;5054831;28;20094;-66
2022/07/30 05:58:27;;;;;;;23.25;17.15;;;15.50;99.90;;;;;;5006652;28;20551;-66
2022/07/30 06:00:53;;;;;;;26.30;18.52;;;15.60;99.90;;;;;;5043073;28;20510;-67
2022/07/30 06:03:19;;;;;;;20.88;16.35;;;15.60;99.90;;;;;;5029693;28;20044;-66
2022/07/30 06:05:44;;;;;;;22.02;16.70;;;15.70;99.90;;;;;;5012490;28;20059;-66
2022/07/30 06:08:10;;;;;;;19.30;16.63;;;15.80;99.90;;;;;;5046333;28;20044;-66
2022/07/30 06:10:36;;;;;;;22.40;16.23;;;15.80;99.90;;;;;;5028360;28;20213;-67
2022/07/30 06:13:02;;;;;;;23.30;16.10;;;15.90;99.90;;;;;;5030851;28;20130;-66
2022/07/30 06:15:28;;;;;;;20.95;16.48;;;16.00;99.90;;;;;;5048613;28;20075;-66
2022/07/30 06:17:54;;;;;;;25.45;16.63;;;16.10;99.90;;;;;;5035492;28;20127;-66
2022/07/30 06:20:20;;;;;;;20.58;16.40;;;16.10;99.90;;;;;;5032347;28;20047;-66
2022/07/30 06:22:46;;;;;;;19.15;15.00;;;16.20;99.90;;;;;;5056407;28;20446;-66
2022/07/30 06:25:12;;;;;;;22.88;16.02;;;16.30;99.90;;;;;;5049071;28;20043;-66
2022/07/30 06:27:38;;;;;;;21.65;15.18;;;16.30;99.90;;;;;;5046752;28;20064;-66
2022/07/30 06:30:06;;;;;;;21.40;14.32;;;16.40;99.90;;;;;;5047481;28;20040;-66
2022/07/30 06:32:32;;;;;;;19.73;14.75;;;16.50;99.90;;;;;;5030011;28;20063;-67
2022/07/30 06:34:59;;;;;;;25.63;14.95;;;16.60;99.90;;;;;;5037911;28;20040;-66
2022/07/30 06:37:25;;;;;;;20.50;14.93;;;16.70;99.90;;;;;;5046566;28;20048;-66
2022/07/30 06:39:51;;;;;;;14.65;13.07;;;16.80;99.90;;;;;;5052422;28;20051;-66
2022/07/30 06:42:17;;;;;;;17.85;13.35;;;16.80;99.90;;;;;;5046206;28;20041;-66
2022/07/30 06:44:43;;;;;;;18.65;12.88;;;16.90;99.90;;;;;;5051500;28;20039;-67
2022/07/30 06:47:08;;;;;;;15.07;12.88;;;17.00;99.90;;;;;;5045732;28;20631;-67
2022/07/30 06:49:36;;;;;;;16.30;13.52;;;17.10;99.90;;;;;;5037421;28;20056;-66
2022/07/30 06:52:03;;;;;;;14.80;13.15;;;17.20;99.90;;;;;;5049580;28;20067;-67
2022/07/30 06:54:29;;;;;;;17.50;13.10;;;17.30;99.90;;;;;;5045053;28;20073;-67
2022/07/30 06:56:54;;;;;;;18.02;14.05;;;17.40;99.90;;;;;;5042833;28;20056;-67
2022/07/30 06:59:20;;;;;;;18.55;13.25;;;17.60;99.90;;;;;;5035754;28;20049;-66
2022/07/30 07:01:46;;;;;;;20.15;13.20;;;17.70;99.90;;;;;;5040453;28;20148;-67
2022/07/30 07:04:12;;;;;;;20.70;12.93;;;17.80;99.90;;;;;;5046964;28;20055;-66
2022/07/30 07:06:38;;;;;;;20.73;13.25;;;17.90;99.90;;;;;;5043738;28;20062;-67
2022/07/30 07:09:04;;;;;;;21.20;13.05;;;18.00;99.90;;;;;;5040348;28;20207;-66
2022/07/30 07:11:30;;;;;;;28.48;12.55;;;18.20;99.90;;;;;;5028253;28;20161;-66
2022/07/30 07:13:56;;;;;;;21.30;11.60;;;18.30;99.90;;;;;;5046094;28;20060;-66
2022/07/30 07:16:24;;;;;;;25.00;12.48;;;18.50;99.90;;;;;;5031752;28;20052;-66
2022/07/30 07:18:53;;;;;;;19.42;11.40;;;18.60;99.90;;;;;;5038878;28;20047;-67
2022/07/30 07:21:20;;;;;;;15.90;11.13;;;18.80;99.90;;;;;;5043751;28;20049;-68
2022/07/30 07:23:47;;;;;;;19.85;11.85;;;18.90;99.90;;;;;;5059975;28;20044;-67
2022/07/30 07:26:14;;;;;;;17.90;11.43;;;19.10;99.90;;;;;;5046937;28;20051;-68
2022/07/30 07:28:40;;;;;;;17.90;11.65;;;19.20;99.90;;;;;;5044078;28;20084;-68
2022/07/30 07:31:07;;;;;;;19.35;11.15;;;19.40;99.90;;;;;;5030039;28;20059;-67
2022/07/30 07:33:33;;;;;;;18.58;11.02;;;19.50;99.90;;;;;;5055285;28;20137;-68
2022/07/30 07:35:58;;;;;;;19.02;10.77;;;19.60;99.90;;;;;;5050490;28;20056;-67
2022/07/30 07:38:24;;;;;;;16.55;9.75;;;19.80;99.90;;;;;;5045362;28;20668;-68
2022/07/30 07:40:50;;;;;;;15.60;10.32;;;19.90;99.90;;;;;;5033525;28;20043;-67
2022/07/30 07:43:16;;;;;;;14.27;9.45;;;20.00;99.90;;;;;;5046393;28;20047;-67
2022/07/30 07:45:42;;;;;;;19.20;9.82;;;20.10;99.90;;;;;;5047935;28;20074;-68
2022/07/30 07:48:08;;;;;;;15.73;9.00;;;20.30;99.90;;;;;;5050735;28;20060;-68
2022/07/30 07:50:34;;;;;;;17.00;9.50;;;20.40;99.90;;;;;;5004136;28;20050;-67
2022/07/30 07:53:00;;;;;;;20.75;9.63;;;20.50;99.90;;;;;;5066567;28;20047;-67
2022/07/30 07:55:26;;;;;;;13.73;8.45;;;20.60;99.90;;;;;;5039773;28;20048;-67
2022/07/30 07:57:52;;;;;;;12.65;7.82;;;20.70;99.90;;;;;;5038947;28;20052;-68
2022/07/30 08:00:18;;;;;;;15.95;8.07;;;20.90;99.90;;;;;;5042152;28;20055;-67
2022/07/30 08:02:44;;;;;;;9.63;7.18;;;21.00;99.90;;;;;;5057915;28;20040;-67
2022/07/30 08:05:13;;;;;;;11.88;6.82;;;21.10;99.90;;;;;;5057811;28;20048;-68
2022/07/30 08:07:40;;;;;;;16.58;7.20;;;21.10;99.90;;;;;;5056372;28;20040;-68
2022/07/30 08:10:07;;;;;;;14.63;7.10;;;21.10;99.90;;;;;;5035374;28;20048;-68
2022/07/30 08:12:33;;;;;;;11.07;5.85;;;21.20;99.90;;;;;;5048839;28;20044;-67
2022/07/30 08:14:59;;;;;;;12.00;6.68;;;21.30;99.90;;;;;;5057432;28;20495;-68
2022/07/30 08:17:25;;;;;;;11.82;6.18;;;21.40;99.90;;;;;;5028652;28;20191;-67
2022/07/30 08:19:51;;;;;;;10.30;5.18;;;21.50;99.90;;;;;;5056709;28;20328;-68
2022/07/30 08:22:17;;;;;;;12.20;5.72;;;21.60;99.90;;;;;;5034041;28;20050;-68
2022/07/30 08:24:42;;;;;;;9.55;6.05;;;21.60;99.90;;;;;;5038002;28;20524;-68
2022/07/30 08:27:08;;;;;;;13.60;5.50;;;21.70;99.90;;;;;;5043962;28;20033;-68
2022/07/30 08:29:34;;;;;;;9.20;5.50;;;21.80;99.90;;;;;;5048569;28;20732;-68
2022/07/30 08:32:00;;;;;;;9.88;5.45;;;21.80;99.90;;;;;;5047423;28;20636;-68
2022/07/30 08:34:27;;;;;;;11.75;5.80;;;21.80;99.90;;;;;;5039311;28;20068;-67
2022/07/30 08:36:53;;;;;;;8.93;5.32;;;21.90;99.90;;;;;;5049056;28;20059;-68
2022/07/30 08:39:19;;;;;;;11.05;5.72;;;22.10;99.90;;;;;;5019408;28;20052;-68
2022/07/30 08:41:45;;;;;;;8.45;5.38;;;22.10;99.90;;;;;;5033354;28;20075;-68
2022/07/30 08:44:11;;;;;;;11.70;5.25;;;22.20;99.90;;;;;;5064685;28;20395;-69
2022/07/30 08:46:42;;;;;;;10.75;5.15;;;22.10;99.90;;;;;;5057311;28;20048;-68
2022/07/30 08:49:10;;;;;;;10.05;4.80;;;22.10;99.80;;;;;;5051475;28;20079;-68
2022/07/30 08:51:36;;;;;;;11.52;4.72;;;22.20;99.80;;;;;;5041817;28;20040;-68
2022/07/30 08:54:03;;;;;;;8.10;4.22;;;22.40;99.60;;;;;;5049775;28;20513;-67
2022/07/30 08:56:31;;;;;;;9.20;4.53;;;22.50;99.30;;;;;;5051526;28;20687;-67
2022/07/30 08:58:58;;;;;;;8.68;4.40;;;22.60;98.90;;;;;;5048852;28;20502;-68
2022/07/30 09:01:24;;;;;;;5.65;3.63;;;22.60;98.60;;;;;;5050404;28;20402;-68
2022/07/30 09:03:50;;;;;;;5.60;3.50;;;22.70;98.30;;;;;;5027050;28;20045;-68
2022/07/30 09:06:16;;;;;;;6.95;3.60;;;22.80;97.80;;;;;;5023254;28;20059;-68
2022/07/30 09:08:42;;;;;;;7.60;4.05;;;22.90;97.70;;;;;;5034009;28;20059;-68
2022/07/30 09:11:09;;;;;;;8.02;4.10;;;23.10;97.10;;;;;;5040519;28;20519;-67
2022/07/30 09:13:37;;;;;;;7.50;4.35;;;23.30;96.20;;;;;;5031543;28;20059;-68
2022/07/30 09:16:04;;;;;;;8.55;3.80;;;23.30;95.90;;;;;;5039436;28;20071;-67
2022/07/30 09:18:33;;;;;;;7.70;3.50;;;23.20;96.00;;;;;;5065850;28;20040;-68
2022/07/30 09:21:12;;;;;;;7.40;3.65;;;23.30;96.30;;;;;;5053943;28;20043;-67
2022/07/30 09:23:38;;;;;;;6.78;3.78;;;23.40;95.80;;;;;;5064887;28;20040;-68
2022/07/30 09:26:04;;;;;;;8.93;3.75;;;23.60;95.30;;;;;;5045894;28;20422;-68
2022/07/30 09:28:32;;;;;;;7.13;3.28;;;23.80;95.20;;;;;;5041280;28;20052;-67
2022/07/30 09:30:58;;;;;;;8.18;3.72;;;24.10;95.60;;;;;;5048941;28;20410;-61
2022/07/30 09:33:38;;;;;;;8.43;3.40;;;24.40;94.90;;;;;;5066010;28;20529;-62
2022/07/30 09:36:05;;;;;;;8.07;3.40;;;24.60;94.60;;;;;;5075456;28;20086;-62
2022/07/30 09:38:42;;;;;;;6.97;3.20;;;24.60;93.50;;;;;;5074524;28;20453;-62
2022/07/30 09:41:09;;;;;;;7.40;3.42;;;24.50;93.00;;;;;;5075845;28;20044;-62
2022/07/30 09:43:51;;;;;;;9.65;3.55;;;24.40;92.60;;;;;;5056046;28;20080;-62
2022/07/30 09:46:17;;;;;;;6.28;2.92;;;24.30;92.40;;;;;;5077662;28;20045;-62
2022/07/30 09:48:45;;;;;;;9.43;3.20;;;24.40;92.00;;;;;;5076423;28;20041;-62
2022/07/30 09:51:12;;;;;;;6.63;2.90;;;24.50;91.80;;;;;;5078512;28;20113;-62
2022/07/30 09:53:54;;;;;;;6.50;3.85;;;24.70;91.90;;;;;;5076412;28;20222;-60
2022/07/30 09:56:25;;;;;;;6.32;3.55;;;24.90;90.90;;;;;;5073751;28;20051;-62
2022/07/30 09:58:50;;;;;;;8.88;3.10;;;24.90;90.80;;;;;;5075370;28;20052;-62
2022/07/30 10:01:16;;;;;;;8.77;3.15;;;25.00;91.40;;;;;;5073825;28;20407;-63
2022/07/30 10:03:42;;;;;;;5.68;2.80;;;25.20;90.70;;;;;;5073458;28;20091;-63
2022/07/30 10:06:09;;;;;;;9.02;3.15;;;25.30;90.10;;;;;;5048318;28;20089;-62
2022/07/30 10:08:45;;;;;;;6.75;2.90;;;25.40;89.60;;;;;;5074307;28;20040;-63
2022/07/30 10:11:13;;;;;;;8.70;2.88;;;25.40;88.10;;;;;;5077502;28;20542;-62
2022/07/30 10:13:40;;;;;;;6.75;2.88;;;25.60;87.90;;;;;;5051043;28;20051;-63
2022/07/30 10:16:06;;;;;;;9.55;3.03;;;25.60;87.20;;;;;;5076799;28;20044;-61
2022/07/30 10:18:33;;;;;;;7.90;3.55;;;25.80;85.60;;;;;;5075034;28;20474;-62
2022/07/30 10:21:00;;;;;;;8.70;3.03;;;25.90;84.80;;;;;;5074744;28;20067;-62
2022/07/30 10:23:28;;;;;;;6.00;2.80;;;25.90;84.80;;;;;;5076616;28;20036;-63
2022/07/30 10:26:00;;;;;;;5.22;2.78;;;26.00;84.20;;;;;;5074382;28;20736;-62
2022/07/30 10:28:27;;;;;;;;;;;26.00;83.70;;;;;;5075605;28;20048;-63
2022/07/30 10:30:54;;;;;;;8.00;2.50;;;26.10;84.30;;;;;;5054033;28;19974;-62
2022/07/30 10:33:22;;;;;;;8.55;2.60;;;26.30;83.10;;;;;;5073409;28;20064;-63
2022/07/30 10:35:48;;;;;;;6.72;2.63;;;26.50;82.10;;;;;;5058544;28;20036;-63
2022/07/30 10:38:16;;;;;;;9.52;2.83;;;26.60;79.80;;;;;;5076003;28;20039;-62
2022/07/30 10:40:47;;;;;;;7.32;3.05;;;26.80;79.10;;;;;;5071346;28;20423;-63
2022/07/30 10:43:52;;;;;;;8.98;2.60;;;27.00;79.80;;;;;;5072084;28;20177;-63
2022/07/30 10:46:44;;;;;;;5.38;2.60;;;27.20;79.50;;;;;;5047554;28;20110;-63
2022/07/30 10:49:14;;;;;;;;;;;27.30;78.10;;;;;;5069333;28;20140;-62
2022/07/30 10:51:49;;;;;;;12.50;2.70;;;27.30;78.60;;;;;;5072845;28;19924;-63
2022/07/30 10:54:33;;;;;;;8.85;2.78;;;27.40;77.50;;;;;;5056703;28;20186;-63
2022/07/30 10:57:09;;;;;;;7.90;2.90;;;27.40;76.20;;;;;;5071615;28;20069;-62
2022/07/30 11:00:01;;;;;;;6.32;2.35;;;27.20;76.60;;;;;;5072818;28;20056;-62
2022/07/30 11:02:28;;;;;;;9.38;3.10;;;27.10;76.10;;;;;;5068842;28;20056;-63
2022/07/30 11:05:19;;;;;;;7.90;3.00;;;26.80;75.20;;;;;;5074332;28;20078;-62
2022/07/30 11:07:45;;;;;;;12.10;3.30;;;26.50;75.60;;;;;;5072404;28;20077;-62
2022/07/30 11:10:33;;;;;;;6.25;2.78;;;26.50;76.20;;;;;;5072894;28;20157;-62
2022/07/30 11:12:58;;;;;;;9.88;3.22;;;26.50;77.20;;;;;;5071327;28;20490;-63
2022/07/30 11:15:53;;;;;;;6.03;2.88;;;26.50;75.90;;;;;;5073324;28;20097;-62
2022/07/30 11:18:19;;;;;;;5.70;3.22;;;26.40;74.80;;;;;;5074338;28;20095;-62
2022/07/30 11:21:18;;;;;;;6.78;2.58;;;26.20;75.40;;;;;;5066603;28;20505;-62
2022/07/30 11:23:45;;;;;;;7.18;2.78;;;26.50;75.10;;;;;;5066167;28;20072;-62
2022/07/30 11:26:45;;;;;;;5.68;2.42;;;26.60;75.80;;;;;;5071371;28;20060;-62
2022/07/30 11:29:40;;;;;;;6.93;2.60;;;26.90;76.40;;;;;;5073297;28;20056;-63
2022/07/30 11:32:26;;;;;;;7.05;2.60;;;27.10;75.20;;;;;;5073221;28;20155;-61
2022/07/30 11:35:11;;;;;;;7.13;2.88;;;27.30;72.90;;;;;;5075287;28;20044;-63
2022/07/30 11:37:55;;;;;;;5.28;2.45;;;27.30;73.10;;;;;;5075106;28;20048;-62
2022/07/30 11:40:23;;;;;;;7.35;2.40;;;27.60;73.50;;;;;;5055211;28;20123;-63
2022/07/30 11:42:50;;;;;;;5.60;2.20;;;27.90;73.10;;;;;;5071418;28;20122;-63
2022/07/30 11:45:15;;;;;;;6.18;2.42;;;28.00;71.40;;;;;;5074055;28;20473;-63
2022/07/30 11:47:43;;;;;;;6.95;2.30;;;28.00;70.40;;;;;;5073334;28;20101;-63
2022/07/30 11:50:23;;;;;;;5.40;1.83;;;27.80;70.50;;;;;;5072965;28;20083;-63
2022/07/30 11:52:57;;;;;;;7.53;2.05;;;27.80;69.30;;;;;;5075779;28;20544;-62
2022/07/30 11:55:34;;;;;;;5.57;2.10;;;27.90;68.60;;;;;;5064154;28;20256;-63
2022/07/30 11:58:02;;;;;;;5.80;2.17;;;27.90;67.80;;;;;;5074604;28;20123;-63
2022/07/30 12:00:46;;;;;;;6.78;2.00;;;28.00;67.60;;;;;;5070173;28;20044;-62
2022/07/30 12:03:18;;;;;;;5.57;1.98;;;28.00;66.90;;;;;;5069177;28;20047;-62
2022/07/30 12:05:44;;;;;;;9.80;2.47;;;28.00;68.40;;;;;;5073501;28;20135;-63
2022/07/30 12:08:11;;;;;;;6.43;1.83;;;27.90;66.90;;;;;;5075264;28;20589;-63
2022/07/30 12:10:40;;;;;;;3.10;1.73;;;27.70;67.00;;;;;;5069409;28;20521;-63
2022/07/30 12:13:16;;;;;;;4.75;2.03;;;27.60;67.40;;;;;;5059187;28;20056;-63
2022/07/30 12:15:43;;;;;;;5.53;2.17;;;27.80;67.40;;;;;;5075129;28;20083;-63
2022/07/30 12:18:12;;;;;;;6.68;2.30;;;28.00;66.90;;;;;;5071853;28;20371;-62
2022/07/30 12:20:38;;;;;;;8.18;2.13;;;28.10;65.40;;;;;;5069385;28;20048;-63
2022/07/30 12:23:14;;;;;;;4.78;1.95;;;28.10;65.00;;;;;;5076447;28;20044;-62
2022/07/30 12:25:41;;;;;;;7.25;2.47;;;28.00;65.70;;;;;;5071375;28;20044;-63
2022/07/30 12:28:09;;;;;;;7.30;2.40;;;28.00;64.90;;;;;;5070424;28;20040;-62
2022/07/30 12:30:41;;;;;;;5.43;2.10;;;28.10;64.80;;;;;;5069252;28;20048;-63
2022/07/30 12:33:06;;;;;;;5.60;2.00;;;28.40;65.00;;;;;;5054802;28;20048;-63
2022/07/30 12:36:01;;;;;;;5.40;2.42;;;28.50;64.40;;;;;;5074300;28;20452;-62
2022/07/30 12:38:28;;;;;;;4.55;2.20;;;28.40;63.60;;;;;;5054996;28;20119;-63
2022/07/30 12:41:02;;;;;;;6.20;1.90;;;28.20;64.00;;;;;;5070868;28;20035;-62
2022/07/30 12:43:48;;;;;;;6.53;2.13;;;28.20;64.70;;;;;;5072104;28;20510;-62
2022/07/30 12:46:27;;;;;;;4.60;2.15;;;28.40;64.40;;;;;;5063038;28;20047;-63
2022/07/30 12:49:01;;;;;;;4.93;2.00;;;28.60;64.60;;;;;;5071102;28;20385;-63